Lapis Arrow — C6VH5 — position and weather

sailwx.info

Track history (hours):
 
Tides and Currents Weather Stations Pressure Air Temp Water Temp Dewpoint Dewpoint Depression Visibility Wind Speed Wind Dir Waves Ship Positions

Lapis Arrow

Last reported at 2015-Apr-20 02:31 UTC. Time now 2015-Apr-21 17:53 UTC.
Position N 30°45' W 116°47'.

Length 176 m; draft 7.3 m.

Type: Cargo ship. MMSI: 308800800.

Date/timePositionNaut miles runAvg speedWind from/ knotsBaromVisibWave heightAir tempDewpointWater temp
2015-Apr-20 02:31N 30°45' W 116°47'1515.7
2015-Apr-20 01:33N 30°59' W 116°52'1615.7
2015-Apr-20 00:32N 31°14' W 116°57'3715.8
2015-Apr-19 22:12N 31°50' W 117°09'1316.0
2015-Apr-19 21:25N 32°02' W 117°14'1415.9
2015-Apr-19 20:33N 32°15' W 117°18'1515.2
2015-Apr-19 19:33N 32°30' W 117°22'1312.8
2015-Apr-19 18:33N 32°41' W 117°14'6 1.8
2015-Apr-19 15:28N 32°39' W 117°07'0 0.0
2015-Apr-19 13:32N 32°39' W 117°07'6 5.9
2015-Apr-19 12:34N 32°43' W 117°13'7 7.4
2015-Apr-19 11:33N 32°39' W 117°20'1313.1
2015-Apr-19 10:33N 32°43' W 117°35'1111.3
2015-Apr-19 09:33N 32°49' W 117°46'1211.3
2015-Apr-19 08:32N 32°56' W 117°58'1211.9
2015-Apr-19 07:33N 33°02' W 118°09'1212.0
2015-Apr-19 06:33N 33°09' W 118°21'1212.3
2015-Apr-19 05:33N 33°16' W 118°33'1512.5
2015-Apr-19 04:19N 33°28' W 118°44'912.3
2015-Apr-19 03:33N 33°36' W 118°51'1712.6
2015-Apr-19 02:12N 33°49' W 119°04'812.6
2015-Apr-19 01:33N 33°56' W 119°10'1211.8
2015-Apr-19 00:34N 34°07' W 119°15'3 2.3
2015-Apr-18 23:14N 34°09' W 119°12'0 0.0
2015-Apr-18 22:08N 34°09' W 119°12'0 0.0
2015-Apr-18 21:32N 34°09' W 119°12'0 0.0
2015-Apr-18 18:32N 34°09' W 119°12'0 0.0
2015-Apr-18 17:29N 34°09' W 119°12'0 0.0
2015-Apr-18 16:33N 34°09' W 119°12'0 0.0
2015-Apr-18 15:27N 34°09' W 119°12'0 0.0
2015-Apr-18 14:31N 34°09' W 119°12'0 0.0
2015-Apr-18 13:32N 34°09' W 119°12'0 0.0
2015-Apr-18 12:17N 34°09' W 119°12'0 0.0
2015-Apr-18 11:18N 34°09' W 119°12'0 0.0
2015-Apr-18 10:20N 34°09' W 119°12'0 0.0
2015-Apr-18 09:19N 34°09' W 119°12'0 0.0
2015-Apr-18 08:31N 34°09' W 119°12'0 0.0
2015-Apr-18 07:31N 34°09' W 119°12'0 0.0
2015-Apr-18 06:16N 34°09' W 119°12'0 0.0
2015-Apr-18 04:14N 34°09' W 119°12'0 0.1
2015-Apr-18 03:31N 34°09' W 119°12'6 6.5
2015-Apr-18 02:33N 34°03' W 119°16'7014.0
2015-Apr-17 21:33N 34°21' W 120°38'1514.9
2015-Apr-17 20:33N 34°25' W 120°55'1414.1
2015-Apr-17 19:34N 34°33' W 121°10'1414.2
2015-Apr-17 18:33N 34°45' W 121°18'1414.4
2015-Apr-17 17:33N 34°58' W 121°26'1714.6
2015-Apr-17 16:24N 35°13' W 121°37'3216.1
2015-Apr-17 14:25N 35°40' W 121°55'1517.3
2015-Apr-17 13:34N 35°53' W 122°05'1717.3
2015-Apr-17 12:33N 36°09' W 122°14'1717.0
2015-Apr-17 11:33N 36°24' W 122°24'1716.8
2015-Apr-17 10:33N 36°40' W 122°30'1716.6
2015-Apr-17 09:33N 36°56' W 122°37'1717.0
2015-Apr-17 08:33N 37°12' W 122°42'1716.6
2015-Apr-17 07:34N 37°29' W 122°43'1616.1
2015-Apr-17 06:33N 37°45' W 122°40'1313.3
2015-Apr-17 05:34N 37°50' W 122°25'1212.3
2015-Apr-17 04:33N 38°02' W 122°21'10 0.5
2015-Apr-16 08:32N 38°02' W 122°08'7 7.4
2015-Apr-16 07:33N 38°04' W 122°17'1312.8
2015-Apr-16 06:33N 37°52' W 122°25'1413.7
2015-Apr-16 05:33N 37°46' W 122°41'9 9.5
2015-Apr-16 04:33N 37°49' W 122°52'1313.5
2015-Apr-16 03:34N 37°55' W 123°07'1515.1
2015-Apr-16 02:33N 38°06' W 123°20'1514.8
2015-Apr-16 01:33N 38°14' W 123°36'1414.5
2015-Apr-16 00:33N 38°22' W 123°52'1514.1
2015-Apr-15 23:30N 38°29' W 124°08'43916.2
2015-Apr-14 20:26N 45°46' W 125°17'1416.4
2015-Apr-14 19:33N 46°00' W 125°19'1916.6
2015-Apr-14 18:25N 46°19' W 125°19'11916.7
2015-Apr-14 11:18N 48°18' W 125°12'1317.3
2015-Apr-14 10:33N 48°29' W 125°03'4414.0
2015-Apr-14 07:26N 48°18' W 123°59'1314.8
2015-Apr-14 06:33N 48°16' W 123°40'1413.4
2015-Apr-14 05:33N 48°09' W 123°22'1514.7
2015-Apr-14 04:30N 48°12' W 122°60'1515.8
2015-Apr-14 03:33N 48°06' W 122°39'1716.6
2015-Apr-14 02:34N 47°52' W 122°28'1817.6
2015-Apr-14 01:33N 47°34' W 122°27'1515.0
2015-Apr-14 00:34N 47°19' W 122°27'5 4.6
2015-Apr-13 23:32N 47°15' W 122°23'0 0.1
2015-Apr-13 22:32N 47°16' W 122°23'0 0.0
2015-Apr-13 21:29N 47°16' W 122°23'0 0.0
2015-Apr-13 20:29N 47°16' W 122°23'0 0.0
2015-Apr-13 19:32N 47°16' W 122°23'0 0.0
2015-Apr-13 18:32N 47°16' W 122°23'0 0.0
2015-Apr-13 17:29N 47°16' W 122°23'0 0.0
2015-Apr-13 16:29N 47°16' W 122°23'0 0.0
2015-Apr-13 15:29N 47°16' W 122°23'0 0.0
2015-Apr-13 14:32N 47°16' W 122°23'0 0.0
2015-Apr-13 13:32N 47°16' W 122°23'0 0.0
2015-Apr-13 12:29N 47°16' W 122°23'0 0.0
2015-Apr-13 11:32N 47°16' W 122°23'0 0.0
2015-Apr-13 10:30N 47°16' W 122°23'0 0.0
2015-Apr-13 09:33N 47°16' W 122°23'0 0.0
2015-Apr-13 08:32N 47°16' W 122°23'0 0.0
2015-Apr-13 07:32N 47°16' W 122°23'0 0.0
2015-Apr-13 06:29N 47°16' W 122°23'0 0.0
2015-Apr-13 05:32N 47°16' W 122°23'0 0.0
2015-Apr-13 04:32N 47°16' W 122°23'0 0.0
2015-Apr-13 03:28N 47°16' W 122°23'0 0.0
2015-Apr-13 02:24N 47°16' W 122°23'0 0.1
2015-Apr-13 01:33N 47°15' W 122°23'0 0.2
2015-Apr-13 00:31N 47°16' W 122°23'0 0.0
2015-Apr-12 23:32N 47°16' W 122°23'0 0.0
2015-Apr-12 22:32N 47°16' W 122°23'0 0.0
2015-Apr-12 21:32N 47°16' W 122°23'0 0.0
2015-Apr-12 20:32N 47°16' W 122°23'0 0.0
2015-Apr-12 19:32N 47°16' W 122°23'0 0.0
2015-Apr-12 18:29N 47°16' W 122°23'0 0.0
2015-Apr-12 17:29N 47°16' W 122°23'0 0.0
2015-Apr-12 16:29N 47°16' W 122°23'0 0.0
2015-Apr-12 15:29N 47°16' W 122°23'0 0.0
2015-Apr-12 14:31N 47°16' W 122°23'0 0.0
2015-Apr-12 13:31N 47°16' W 122°23'0 0.1
2015-Apr-12 12:34N 47°16' W 122°23'3 2.8
2015-Apr-12 11:33N 47°18' W 122°26'5 5.0
2015-Apr-12 10:34N 47°22' W 122°24'6 6.5
2015-Apr-12 09:34N 47°29' W 122°25'1 0.6
2015-Apr-12 08:33N 47°29' W 122°24'7 6.9
2015-Apr-12 07:34N 47°22' W 122°22'3 2.8
2015-Apr-12 06:34N 47°21' W 122°26'1514.8
2015-Apr-12 05:33N 47°36' W 122°28'1717.0
2015-Apr-12 04:34N 47°53' W 122°29'1818.3
2015-Apr-12 03:33N 48°08' W 122°43'1818.3
2015-Apr-12 02:33N 48°11' W 123°10'1313.0
2015-Apr-12 01:33N 48°13' W 123°30'1111.4
2015-Apr-12 00:33N 48°23' W 123°21'1312.6
2015-Apr-11 23:33N 48°35' W 123°14'1514.7
2015-Apr-11 22:34N 48°47' W 123°02'1717.0
2015-Apr-11 21:34N 49°00' W 123°18'8 8.0
2015-Apr-11 20:33N 49°07' W 123°11'1110.5
2015-Apr-11 19:31N 49°11' W 122°55'0 0.0
2015-Apr-11 18:31N 49°11' W 122°55'0 0.0
2015-Apr-11 17:31N 49°11' W 122°55'0 0.0
2015-Apr-11 16:33N 49°11' W 122°55'0 0.0
2015-Apr-11 15:33N 49°11' W 122°55'0 0.0
2015-Apr-11 14:33N 49°11' W 122°55'0 0.0
2015-Apr-11 13:32N 49°11' W 122°55'0 0.0
2015-Apr-11 12:32N 49°11' W 122°55'0 0.0
2015-Apr-11 11:32N 49°11' W 122°55'0 0.0
2015-Apr-11 10:32N 49°11' W 122°55'0 0.0
2015-Apr-11 09:32N 49°11' W 122°55'0 0.0
2015-Apr-11 08:32N 49°11' W 122°55'0 0.0
2015-Apr-11 07:32N 49°11' W 122°55'0 0.0
2015-Apr-11 06:32N 49°11' W 122°55'0 0.2
2015-Apr-11 05:33N 49°11' W 122°55'1110.8
2015-Apr-11 04:33N 49°07' W 123°11'7 6.6
2015-Apr-11 03:33N 49°01' W 123°15'1616.2
2015-Apr-11 02:33N 48°48' W 122°60'1414.4
2015-Apr-11 01:33N 48°37' W 123°14'1414.3
2015-Apr-11 00:34N 48°23' W 123°15'1212.2
2015-Apr-10 23:33N 48°14' W 123°28'1313.4
2015-Apr-10 22:33N 48°14' W 123°48'1514.8
2015-Apr-10 21:33N 48°18' W 124°10'1413.8
2015-Apr-10 20:33N 48°24' W 124°29'1212.2
2015-Apr-10 19:34N 48°29' W 124°46'1313.0
2015-Apr-10 18:33N 48°28' W 125°05'1913.2
2015-Apr-10 17:07N 48°22' W 125°32'813.8
2015-Apr-10 16:33N 48°18' W 125°42'  
Track history (hours):
 
Tides and Currents Weather Stations Pressure Air Temp Water Temp Dewpoint Dewpoint Depression Visibility Wind Speed Wind Dir Waves Ship Positions

Lapis Arrow

Last reported at 2015-Apr-20 02:31 UTC. Time now 2015-Apr-21 17:53 UTC.
Position N 30°45' W 116°47'.

Length 176 m; draft 7.3 m.

Type: Cargo ship. MMSI: 308800800.

Date/timePositionNaut miles runAvg speedWind from/ knotsBaromVisibWave heightAir tempDewpointWater temp
2015-Apr-20 02:31N 30°45' W 116°47'1515.7
2015-Apr-20 01:33N 30°59' W 116°52'1615.7
2015-Apr-20 00:32N 31°14' W 116°57'3715.8
2015-Apr-19 22:12N 31°50' W 117°09'1316.0
2015-Apr-19 21:25N 32°02' W 117°14'1415.9
2015-Apr-19 20:33N 32°15' W 117°18'1515.2
2015-Apr-19 19:33N 32°30' W 117°22'1312.8
2015-Apr-19 18:33N 32°41' W 117°14'6 1.8
2015-Apr-19 15:28N 32°39' W 117°07'0 0.0
2015-Apr-19 13:32N 32°39' W 117°07'6 5.9
2015-Apr-19 12:34N 32°43' W 117°13'7 7.4
2015-Apr-19 11:33N 32°39' W 117°20'1313.1
2015-Apr-19 10:33N 32°43' W 117°35'1111.3
2015-Apr-19 09:33N 32°49' W 117°46'1211.3
2015-Apr-19 08:32N 32°56' W 117°58'1211.9
2015-Apr-19 07:33N 33°02' W 118°09'1212.0
2015-Apr-19 06:33N 33°09' W 118°21'1212.3
2015-Apr-19 05:33N 33°16' W 118°33'1512.5
2015-Apr-19 04:19N 33°28' W 118°44'912.3
2015-Apr-19 03:33N 33°36' W 118°51'1712.6
2015-Apr-19 02:12N 33°49' W 119°04'812.6
2015-Apr-19 01:33N 33°56' W 119°10'1211.8
2015-Apr-19 00:34N 34°07' W 119°15'3 2.3
2015-Apr-18 23:14N 34°09' W 119°12'0 0.0
2015-Apr-18 22:08N 34°09' W 119°12'0 0.0
2015-Apr-18 21:32N 34°09' W 119°12'0 0.0
2015-Apr-18 18:32N 34°09' W 119°12'0 0.0
2015-Apr-18 17:29N 34°09' W 119°12'0 0.0
2015-Apr-18 16:33N 34°09' W 119°12'0 0.0
2015-Apr-18 15:27N 34°09' W 119°12'0 0.0
2015-Apr-18 14:31N 34°09' W 119°12'0 0.0
2015-Apr-18 13:32N 34°09' W 119°12'0 0.0
2015-Apr-18 12:17N 34°09' W 119°12'0 0.0
2015-Apr-18 11:18N 34°09' W 119°12'0 0.0
2015-Apr-18 10:20N 34°09' W 119°12'0 0.0
2015-Apr-18 09:19N 34°09' W 119°12'0 0.0
2015-Apr-18 08:31N 34°09' W 119°12'0 0.0
2015-Apr-18 07:31N 34°09' W 119°12'0 0.0
2015-Apr-18 06:16N 34°09' W 119°12'0 0.0
2015-Apr-18 04:14N 34°09' W 119°12'0 0.1
2015-Apr-18 03:31N 34°09' W 119°12'6 6.5
2015-Apr-18 02:33N 34°03' W 119°16'7014.0
2015-Apr-17 21:33N 34°21' W 120°38'1514.9
2015-Apr-17 20:33N 34°25' W 120°55'1414.1
2015-Apr-17 19:34N 34°33' W 121°10'1414.2
2015-Apr-17 18:33N 34°45' W 121°18'1414.4
2015-Apr-17 17:33N 34°58' W 121°26'1714.6
2015-Apr-17 16:24N 35°13' W 121°37'3216.1
2015-Apr-17 14:25N 35°40' W 121°55'1517.3
2015-Apr-17 13:34N 35°53' W 122°05'1717.3
2015-Apr-17 12:33N 36°09' W 122°14'1717.0
2015-Apr-17 11:33N 36°24' W 122°24'1716.8
2015-Apr-17 10:33N 36°40' W 122°30'1716.6
2015-Apr-17 09:33N 36°56' W 122°37'1717.0
2015-Apr-17 08:33N 37°12' W 122°42'1716.6
2015-Apr-17 07:34N 37°29' W 122°43'1616.1
2015-Apr-17 06:33N 37°45' W 122°40'1313.3
2015-Apr-17 05:34N 37°50' W 122°25'1212.3
2015-Apr-17 04:33N 38°02' W 122°21'10 0.5
2015-Apr-16 08:32N 38°02' W 122°08'7 7.4
2015-Apr-16 07:33N 38°04' W 122°17'1312.8
2015-Apr-16 06:33N 37°52' W 122°25'1413.7
2015-Apr-16 05:33N 37°46' W 122°41'9 9.5
2015-Apr-16 04:33N 37°49' W 122°52'1313.5
2015-Apr-16 03:34N 37°55' W 123°07'1515.1
2015-Apr-16 02:33N 38°06' W 123°20'1514.8
2015-Apr-16 01:33N 38°14' W 123°36'1414.5
2015-Apr-16 00:33N 38°22' W 123°52'1514.1
2015-Apr-15 23:30N 38°29' W 124°08'43916.2
2015-Apr-14 20:26N 45°46' W 125°17'1416.4
2015-Apr-14 19:33N 46°00' W 125°19'1916.6
2015-Apr-14 18:25N 46°19' W 125°19'11916.7
2015-Apr-14 11:18N 48°18' W 125°12'1317.3
2015-Apr-14 10:33N 48°29' W 125°03'4414.0
2015-Apr-14 07:26N 48°18' W 123°59'1314.8
2015-Apr-14 06:33N 48°16' W 123°40'1413.4
2015-Apr-14 05:33N 48°09' W 123°22'1514.7
2015-Apr-14 04:30N 48°12' W 122°60'1515.8
2015-Apr-14 03:33N 48°06' W 122°39'1716.6
2015-Apr-14 02:34N 47°52' W 122°28'1817.6
2015-Apr-14 01:33N 47°34' W 122°27'1515.0
2015-Apr-14 00:34N 47°19' W 122°27'5 4.6
2015-Apr-13 23:32N 47°15' W 122°23'0 0.1
2015-Apr-13 22:32N 47°16' W 122°23'0 0.0
2015-Apr-13 21:29N 47°16' W 122°23'0 0.0
2015-Apr-13 20:29N 47°16' W 122°23'0 0.0
2015-Apr-13 19:32N 47°16' W 122°23'0 0.0
2015-Apr-13 18:32N 47°16' W 122°23'0 0.0
2015-Apr-13 17:29N 47°16' W 122°23'0 0.0
2015-Apr-13 16:29N 47°16' W 122°23'0 0.0
2015-Apr-13 15:29N 47°16' W 122°23'0 0.0
2015-Apr-13 14:32N 47°16' W 122°23'0 0.0
2015-Apr-13 13:32N 47°16' W 122°23'0 0.0
2015-Apr-13 12:29N 47°16' W 122°23'0 0.0
2015-Apr-13 11:32N 47°16' W 122°23'0 0.0
2015-Apr-13 10:30N 47°16' W 122°23'0 0.0
2015-Apr-13 09:33N 47°16' W 122°23'0 0.0
2015-Apr-13 08:32N 47°16' W 122°23'0 0.0
2015-Apr-13 07:32N 47°16' W 122°23'0 0.0
2015-Apr-13 06:29N 47°16' W 122°23'0 0.0
2015-Apr-13 05:32N 47°16' W 122°23'0 0.0
2015-Apr-13 04:32N 47°16' W 122°23'0 0.0
2015-Apr-13 03:28N 47°16' W 122°23'0 0.0
2015-Apr-13 02:24N 47°16' W 122°23'0 0.1
2015-Apr-13 01:33N 47°15' W 122°23'0 0.2
2015-Apr-13 00:31N 47°16' W 122°23'0 0.0
2015-Apr-12 23:32N 47°16' W 122°23'0 0.0
2015-Apr-12 22:32N 47°16' W 122°23'0 0.0
2015-Apr-12 21:32N 47°16' W 122°23'0 0.0
2015-Apr-12 20:32N 47°16' W 122°23'0 0.0
2015-Apr-12 19:32N 47°16' W 122°23'0 0.0
2015-Apr-12 18:29N 47°16' W 122°23'0 0.0
2015-Apr-12 17:29N 47°16' W 122°23'0 0.0
2015-Apr-12 16:29N 47°16' W 122°23'0 0.0
2015-Apr-12 15:29N 47°16' W 122°23'0 0.0
2015-Apr-12 14:31N 47°16' W 122°23'0 0.0
2015-Apr-12 13:31N 47°16' W 122°23'0 0.1
2015-Apr-12 12:34N 47°16' W 122°23'3 2.8
2015-Apr-12 11:33N 47°18' W 122°26'5 5.0
2015-Apr-12 10:34N 47°22' W 122°24'6 6.5
2015-Apr-12 09:34N 47°29' W 122°25'1 0.6
2015-Apr-12 08:33N 47°29' W 122°24'7 6.9
2015-Apr-12 07:34N 47°22' W 122°22'3 2.8
2015-Apr-12 06:34N 47°21' W 122°26'1514.8
2015-Apr-12 05:33N 47°36' W 122°28'1717.0
2015-Apr-12 04:34N 47°53' W 122°29'1818.3
2015-Apr-12 03:33N 48°08' W 122°43'1818.3
2015-Apr-12 02:33N 48°11' W 123°10'1313.0
2015-Apr-12 01:33N 48°13' W 123°30'1111.4
2015-Apr-12 00:33N 48°23' W 123°21'1312.6
2015-Apr-11 23:33N 48°35' W 123°14'1514.7
2015-Apr-11 22:34N 48°47' W 123°02'1717.0
2015-Apr-11 21:34N 49°00' W 123°18'8 8.0
2015-Apr-11 20:33N 49°07' W 123°11'1110.5
2015-Apr-11 19:31N 49°11' W 122°55'0 0.0
2015-Apr-11 18:31N 49°11' W 122°55'0 0.0
2015-Apr-11 17:31N 49°11' W 122°55'0 0.0
2015-Apr-11 16:33N 49°11' W 122°55'0 0.0
2015-Apr-11 15:33N 49°11' W 122°55'0 0.0
2015-Apr-11 14:33N 49°11' W 122°55'0 0.0
2015-Apr-11 13:32N 49°11' W 122°55'0 0.0
2015-Apr-11 12:32N 49°11' W 122°55'0 0.0
2015-Apr-11 11:32N 49°11' W 122°55'0 0.0
2015-Apr-11 10:32N 49°11' W 122°55'0 0.0
2015-Apr-11 09:32N 49°11' W 122°55'0 0.0
2015-Apr-11 08:32N 49°11' W 122°55'0 0.0
2015-Apr-11 07:32N 49°11' W 122°55'0 0.0
2015-Apr-11 06:32N 49°11' W 122°55'0 0.2
2015-Apr-11 05:33N 49°11' W 122°55'1110.8
2015-Apr-11 04:33N 49°07' W 123°11'7 6.6
2015-Apr-11 03:33N 49°01' W 123°15'1616.2
2015-Apr-11 02:33N 48°48' W 122°60'1414.4
2015-Apr-11 01:33N 48°37' W 123°14'1414.3
2015-Apr-11 00:34N 48°23' W 123°15'1212.2
2015-Apr-10 23:33N 48°14' W 123°28'1313.4
2015-Apr-10 22:33N 48°14' W 123°48'1514.8
2015-Apr-10 21:33N 48°18' W 124°10'1413.8
2015-Apr-10 20:33N 48°24' W 124°29'1212.2
2015-Apr-10 19:34N 48°29' W 124°46'1313.0
2015-Apr-10 18:33N 48°28' W 125°05'1913.2
2015-Apr-10 17:07N 48°22' W 125°32'813.8
2015-Apr-10 16:33N 48°18' W 125°42'  

Dump ship's entire track history